Aérodrome :
LOGIN :

S'inscrire | Disclaimer

   EN    FR    IT 

 










Légende :    VFR   VFR Marginal   IFR   IFR Intensif   IFR Très Intensif
Visi : 
Plafond : 
>= 8 km
>= 3000ft
5 à 8 km
1000 à 3000 ft
1500m à 5 km
500 à 1000 ft
800 à 1500m
200 à 500 ft
< 800m
< 200 ft
Symboles :   Orages  Brouillard  Fortes neiges  Fortes précipitations  Vent > 20 kt
SIGMETs :   Divers  Orages  Givrage  Turbulence  Onde Orograph.  Cendres Volcan.







- Altitude de l'aérodrome : 55 ft
- Voir les cartes d'approche


EGNO - Warton Preston

DERNIER METAR :
  • 121520Z 15005KT 120V180 9999 FEW028 SCT040 01/M00 Q1004

METARs EXPIRÉS :
  • 121450Z 17006KT 9999 FEW025 SCT040 01/M00 Q1004
  • 121420Z 16005KT 130V190 9999 FEW024 01/00 Q1004
  • 121350Z 15005KT 9999 FEW024 01/M00 Q1004
  • 121320Z 16005KT 9000 FEW025 01/M00 Q1005
  • 121250Z 16006KT 9999 FEW035 00/M01 Q1005

TAF TAF EGNO
Valide du 12 à 15h jusqu'au 12 à 19h UTC


121418Z 1215/1219 16009KT 9999 FEW015
PROB40
TEMPO 1215/1216 7000
TEMPO 1216/1219 6000 -RADZ BKN010
PROB40
TEMPO 1217/1219 18015G25KT 3000 RADZ BKN005
ATIS : +44 1772 856 060
Pas de NOTAMs connus pour ce terrain.
1 SIGMET publié pour la FIR London (EGTT) :
 
Turbulence forte
EGTT SIGMET 03 VALID 121500/121900 EGRR
EGTT LONDON FIR SEV TURB FCST WI N5100 W00726 - N5207 W00519 - N4934 W00416 - N4926 W00456 - N4901 W00703 - N5100 W00726 FL200/420 MOV E 05KT NC=



MET'MAP, la Météo Aéronautique d'un coup d'oeil ! - Copyright ORBIFLY Décembre 2007 - Disclaimer

ORBIFLY MET'MAP TEAM :

Programmation & Développement : Alexandra Zaïnal
Conception & Développement : Baudouin d'Aumeries
Co-Programmation & Développement : Marc-Olivier Méhu
Soutien technique & logistique : Manuel Goepfert

Contact : metmap@orbifly.com




SOURCES & CREDITS :

   NOAA